createdAt,value
2023-04-15T00:01:49.618Z,50.31
2023-04-15T00:04:18.910Z,50.33
2023-04-15T00:06:53.017Z,50.32
2023-04-15T00:09:20.874Z,50.46
2023-04-15T00:11:48.971Z,50.56
2023-04-15T00:14:16.702Z,50.36
2023-04-15T00:16:44.483Z,50.29
2023-04-15T00:19:12.323Z,50.19
2023-04-15T00:21:41.428Z,50.03
2023-04-15T00:24:09.113Z,50.07
2023-04-15T00:26:36.793Z,50.41
2023-04-15T00:29:04.535Z,50.16
2023-04-15T00:31:32.942Z,49.97
2023-04-15T00:34:00.743Z,49.95
2023-04-15T00:36:28.420Z,50.36
2023-04-15T00:38:57.840Z,50.31
2023-04-15T00:41:25.760Z,50.30
2023-04-15T00:43:53.505Z,49.91
2023-04-15T00:46:21.981Z,49.94
2023-04-15T00:48:49.709Z,50.33
2023-04-15T00:51:17.633Z,50.59
2023-04-15T00:53:45.345Z,50.58
2023-04-15T00:56:15.297Z,50.35
2023-04-15T00:58:43.199Z,50.58
2023-04-15T01:01:11.521Z,50.55
2023-04-15T01:03:39.422Z,50.33
2023-04-15T01:06:07.625Z,50.49
2023-04-15T01:08:35.535Z,50.64
2023-04-15T01:11:04.186Z,50.34
2023-04-15T01:13:35.040Z,50.35
2023-04-15T01:16:03.595Z,50.85
2023-04-15T01:18:31.556Z,50.73
2023-04-15T01:20:59.411Z,50.55
2023-04-15T01:23:27.396Z,50.67
2023-04-15T01:25:58.466Z,50.69
2023-04-15T01:28:27.124Z,50.63
2023-04-15T01:31:08.006Z,50.52
2023-04-15T01:33:36.656Z,50.67
2023-04-15T01:36:05.082Z,50.88
2023-04-15T01:38:33.470Z,50.58
2023-04-15T01:41:03.406Z,50.62
2023-04-15T01:43:31.080Z,50.51
2023-04-15T01:45:58.796Z,50.78
2023-04-15T01:48:27.353Z,50.67
2023-04-15T01:50:57.573Z,50.66
2023-04-15T01:53:25.857Z,50.80
2023-04-15T01:55:53.735Z,50.86
2023-04-15T01:58:23.083Z,50.66
2023-04-15T02:00:50.853Z,50.77
2023-04-15T02:03:18.955Z,50.62
2023-04-15T02:05:46.856Z,50.70
2023-04-15T02:08:14.589Z,50.86
2023-04-15T02:10:42.321Z,50.77
2023-04-15T02:13:10.880Z,50.65
2023-04-15T02:15:39.909Z,50.57
2023-04-15T02:18:07.636Z,50.91
2023-04-15T02:20:36.309Z,50.70
2023-04-15T02:23:07.372Z,50.91
2023-04-15T02:25:35.095Z,50.66
2023-04-15T02:28:02.845Z,50.73
2023-04-15T02:30:30.616Z,50.76
2023-04-15T02:32:59.801Z,50.83
2023-04-15T02:35:27.784Z,50.97
2023-04-15T02:37:55.532Z,50.91
2023-04-15T02:40:23.541Z,50.81
2023-04-15T02:42:51.233Z,51.20
2023-04-15T02:45:23.613Z,51.04
2023-04-15T02:47:51.522Z,51.15
2023-04-15T02:50:21.012Z,50.97
2023-04-15T02:52:48.699Z,50.94
2023-04-15T02:55:18.076Z,50.93
2023-04-15T02:57:45.846Z,51.17
2023-04-15T03:00:14.948Z,51.08
2023-04-15T03:02:43.230Z,51.20
2023-04-15T03:05:13.578Z,51.03
2023-04-15T03:07:42.776Z,51.08
2023-04-15T03:10:11.944Z,51.01
2023-04-15T03:12:40.717Z,51.30
2023-04-15T03:15:09.845Z,51.30
2023-04-15T03:17:37.682Z,50.94
2023-04-15T03:20:07.262Z,51.27
2023-04-15T03:22:35.180Z,51.35
2023-04-15T03:25:04.361Z,51.43
2023-04-15T03:27:32.142Z,51.34
2023-04-15T03:29:59.802Z,51.23
2023-04-15T03:32:27.627Z,51.18
2023-04-15T03:34:55.437Z,51.42
2023-04-15T03:37:23.116Z,51.13
2023-04-15T03:39:51.085Z,51.41
2023-04-15T03:42:20.273Z,51.40
2023-04-15T03:44:48.197Z,51.32
2023-04-15T03:47:15.857Z,51.27
2023-04-15T03:49:43.512Z,51.20
2023-04-15T03:52:11.223Z,51.41
2023-04-15T03:54:38.876Z,51.38
2023-04-15T03:57:06.566Z,51.25
2023-04-15T03:59:35.615Z,51.46
2023-04-15T04:02:03.478Z,51.31
2023-04-15T04:04:31.671Z,51.32
2023-04-15T04:06:59.668Z,51.40
2023-04-15T04:09:27.819Z,51.33
2023-04-15T04:11:56.192Z,51.32
2023-04-15T04:14:29.265Z,51.42
2023-04-15T04:16:58.365Z,51.35
2023-04-15T04:19:26.257Z,51.48
2023-04-15T04:21:54.023Z,51.29
2023-04-15T04:24:21.750Z,51.67
2023-04-15T04:26:49.451Z,51.65
2023-04-15T04:29:17.145Z,51.74
2023-04-15T04:31:44.897Z,51.79
2023-04-15T04:34:13.937Z,51.74
2023-04-15T04:36:41.668Z,51.69
2023-04-15T04:39:09.443Z,51.73
2023-04-15T04:41:37.144Z,51.77
2023-04-15T04:44:05.170Z,51.98
2023-04-15T04:46:32.874Z,51.94
2023-04-15T04:49:00.694Z,51.86
2023-04-15T04:51:29.877Z,51.98
2023-04-15T04:53:57.823Z,52.03
2023-04-15T04:56:25.646Z,52.11
2023-04-15T04:58:53.574Z,52.13
2023-04-15T05:01:21.438Z,52.16
2023-04-15T05:03:49.293Z,52.13
2023-04-15T05:06:16.994Z,52.26
2023-04-15T05:08:47.036Z,52.28
2023-04-15T05:11:14.748Z,52.28
2023-04-15T05:13:42.462Z,52.23
2023-04-15T05:16:10.170Z,52.37
2023-04-15T05:18:37.970Z,52.35
2023-04-15T05:21:06.726Z,52.37
2023-04-15T05:23:34.948Z,52.37
2023-04-15T05:26:04.165Z,52.44
2023-04-15T05:28:31.859Z,52.50
2023-04-15T05:30:59.765Z,52.52
2023-04-15T05:33:27.861Z,52.53
2023-04-15T05:35:55.591Z,52.67
2023-04-15T05:38:23.382Z,52.67
2023-04-15T05:40:51.399Z,52.62
2023-04-15T05:43:22.952Z,52.91
2023-04-15T05:45:50.675Z,52.77
2023-04-15T05:48:18.417Z,52.84
2023-04-15T05:50:46.134Z,52.78
2023-04-15T05:53:13.877Z,53.37
2023-04-15T05:55:41.733Z,52.90
2023-04-15T05:58:09.438Z,52.92
2023-04-15T06:00:38.679Z,53.42
2023-04-15T06:03:06.727Z,54.29
2023-04-15T06:05:34.571Z,54.69
2023-04-15T06:08:02.682Z,54.59
2023-04-15T06:10:30.899Z,54.15
2023-04-15T06:12:58.615Z,54.04
2023-04-15T06:15:26.486Z,53.93
2023-04-15T06:17:55.659Z,53.97
2023-04-15T06:20:23.982Z,53.93
2023-04-15T06:22:51.720Z,53.98
2023-04-15T06:25:19.916Z,53.89
2023-04-15T06:27:48.335Z,53.99
2023-04-15T06:30:16.126Z,53.76
2023-04-15T06:32:43.915Z,54.12
2023-04-15T06:35:13.002Z,54.15
2023-04-15T06:37:40.816Z,54.27
2023-04-15T06:40:10.122Z,54.31
2023-04-15T06:42:38.336Z,54.43
2023-04-15T06:45:07.196Z,54.23
2023-04-15T06:47:34.897Z,54.37
2023-04-15T06:50:03.959Z,54.75
2023-04-15T06:52:33.020Z,54.34
2023-04-15T06:55:00.980Z,54.32
2023-04-15T06:57:29.230Z,54.41
2023-04-15T06:59:57.299Z,54.33
2023-04-15T07:02:25.100Z,54.30
2023-04-15T07:04:52.870Z,54.12
2023-04-15T07:07:20.610Z,54.28
2023-04-15T07:09:49.732Z,54.39
2023-04-15T07:12:18.023Z,54.21
2023-04-15T07:14:45.724Z,54.35
2023-04-15T07:17:13.707Z,54.31
2023-04-15T07:19:41.838Z,54.33
2023-04-15T07:22:09.615Z,54.52
2023-04-15T07:24:37.334Z,54.65
2023-04-15T07:27:06.518Z,54.48
2023-04-15T07:29:34.332Z,54.69
2023-04-15T07:32:02.019Z,54.54
2023-04-15T07:34:31.424Z,54.91
2023-04-15T07:37:00.286Z,54.75
2023-04-15T07:39:29.209Z,54.74
2023-04-15T07:41:57.028Z,54.75
2023-04-15T07:44:26.223Z,54.73
2023-04-15T07:46:53.949Z,55.24
2023-04-15T07:49:21.701Z,55.18
2023-04-15T07:51:50.029Z,55.03
2023-04-15T07:54:17.757Z,55.09
2023-04-15T07:56:45.471Z,55.10
2023-04-15T07:59:13.134Z,55.17
2023-04-15T08:01:42.500Z,55.26
2023-04-15T08:04:10.673Z,55.26
2023-04-15T08:06:40.121Z,55.19
2023-04-15T08:09:08.202Z,55.24
2023-04-15T08:11:36.522Z,55.19
2023-04-15T08:14:04.268Z,55.24
2023-04-15T08:16:32.083Z,55.34
2023-04-15T08:19:01.440Z,55.33
2023-04-15T08:21:30.922Z,54.97
2023-04-15T08:23:58.747Z,55.35
2023-04-15T08:26:26.847Z,55.42
2023-04-15T08:28:54.577Z,55.41
2023-04-15T08:31:22.398Z,55.54
2023-04-15T08:33:52.039Z,55.78
2023-04-15T08:36:21.174Z,55.77
2023-04-15T08:38:48.848Z,55.95
2023-04-15T08:41:23.613Z,55.88
2023-04-15T08:43:55.600Z,56.17
2023-04-15T08:46:24.280Z,56.10
2023-04-15T08:48:52.175Z,56.27
2023-04-15T08:51:23.827Z,56.39
2023-04-15T08:53:53.397Z,56.31
2023-04-15T08:56:26.063Z,56.13
2023-04-15T08:58:54.682Z,55.93
2023-04-15T09:01:22.697Z,56.09
2023-04-15T09:03:51.551Z,56.03
2023-04-15T09:06:21.659Z,55.95
2023-04-15T09:08:49.582Z,55.45
2023-04-15T09:11:19.990Z,55.44
2023-04-15T09:13:48.245Z,55.12
2023-04-15T09:16:16.018Z,55.32
2023-04-15T09:18:44.783Z,54.85
2023-04-15T09:21:14.446Z,54.98
2023-04-15T09:23:56.728Z,54.76
2023-04-15T09:26:32.461Z,54.69
2023-04-15T09:29:05.870Z,54.60
2023-04-15T09:31:33.723Z,54.34
2023-04-15T09:34:01.736Z,54.26
2023-04-15T09:36:30.470Z,54.36
2023-04-15T09:39:00.575Z,54.34
2023-04-15T09:41:28.678Z,53.92
2023-04-15T09:43:56.608Z,53.80
2023-04-15T09:46:42.096Z,53.49
2023-04-15T09:49:10.431Z,53.38
2023-04-15T09:51:38.450Z,54.08
2023-04-15T09:54:07.603Z,53.75
2023-04-15T09:56:37.760Z,53.72
2023-04-15T09:59:06.377Z,53.67
2023-04-15T10:01:34.214Z,53.50
2023-04-15T10:04:06.003Z,52.91
2023-04-15T10:06:35.556Z,53.38
2023-04-15T10:09:03.608Z,53.80
2023-04-15T10:11:34.188Z,53.79
2023-04-15T10:14:02.503Z,53.86
2023-04-15T10:16:33.650Z,53.59
2023-04-15T10:19:03.803Z,53.84
2023-04-15T10:21:32.178Z,53.53
2023-04-15T10:24:00.323Z,53.91
2023-04-15T10:26:29.375Z,53.72
2023-04-15T10:29:00.141Z,53.58
2023-04-15T10:31:28.263Z,52.93
2023-04-15T10:33:56.677Z,50.41
2023-04-15T10:36:24.714Z,52.02
2023-04-15T10:38:52.543Z,52.17
2023-04-15T10:41:21.948Z,51.62
2023-04-15T10:43:53.100Z,52.05
2023-04-15T10:46:25.656Z,52.36
2023-04-15T10:48:55.004Z,51.92
2023-04-15T10:51:31.536Z,51.07
2023-04-15T10:54:00.856Z,50.49
2023-04-15T10:56:30.769Z,51.29
2023-04-15T10:59:00.966Z,50.85
2023-04-15T11:01:54.908Z,50.63
2023-04-15T11:04:58.481Z,50.57
2023-04-15T11:07:48.559Z,50.52
2023-04-15T11:10:53.840Z,47.12
2023-04-15T11:13:24.217Z,46.86
2023-04-15T11:15:52.309Z,45.76
2023-04-15T11:18:23.098Z,46.36
2023-04-15T11:20:52.387Z,46.09
2023-04-15T11:23:22.068Z,44.98
2023-04-15T11:25:49.825Z,45.76
2023-04-15T11:28:17.580Z,47.53
2023-04-15T11:30:45.278Z,47.58
2023-04-15T11:33:14.048Z,48.35
2023-04-15T11:35:44.057Z,48.51
2023-04-15T11:38:13.714Z,48.34
2023-04-15T11:40:44.529Z,47.93
2023-04-15T11:43:15.787Z,47.66
2023-04-15T11:45:52.774Z,47.92
2023-04-15T11:48:21.834Z,48.42
2023-04-15T11:50:56.497Z,48.32
2023-04-15T11:53:25.198Z,48.72
2023-04-15T11:55:54.608Z,48.53
2023-04-15T11:58:24.321Z,48.11
2023-04-15T12:00:54.450Z,47.85
2023-04-15T12:03:27.448Z,48.64
2023-04-15T12:06:21.345Z,48.75
2023-04-15T12:08:54.051Z,49.37
2023-04-15T12:11:22.650Z,49.57
2023-04-15T12:13:51.572Z,49.38
2023-04-15T12:16:19.970Z,49.63
2023-04-15T12:18:48.320Z,49.47
2023-04-15T12:21:16.090Z,49.49
2023-04-15T12:23:50.886Z,49.81
2023-04-15T12:26:19.201Z,49.86
2023-04-15T12:28:47.099Z,49.31
2023-04-15T12:31:15.670Z,49.59
2023-04-15T12:33:43.496Z,48.70
2023-04-15T12:36:11.187Z,47.44
2023-04-15T12:38:38.875Z,47.22
2023-04-15T12:41:08.009Z,46.35
2023-04-15T12:43:36.051Z,46.29
2023-04-15T12:46:04.862Z,46.87
2023-04-15T12:48:33.198Z,47.17
2023-04-15T12:51:00.980Z,47.70
2023-04-15T12:53:28.853Z,47.12
2023-04-15T12:55:56.554Z,47.49
2023-04-15T12:58:25.721Z,47.71
2023-04-15T13:00:53.452Z,47.93
2023-04-15T13:03:21.294Z,47.94
2023-04-15T13:05:49.179Z,48.17
2023-04-15T13:08:16.917Z,48.04
2023-04-15T13:10:44.768Z,48.08
2023-04-15T13:13:12.471Z,48.13
2023-04-15T13:15:41.535Z,47.94
2023-04-15T13:18:09.718Z,47.81
2023-04-15T13:20:37.489Z,48.24
2023-04-15T13:23:05.185Z,48.13
2023-04-15T13:25:32.960Z,47.82
2023-04-15T13:28:01.313Z,48.35
2023-04-15T13:30:29.245Z,48.52
2023-04-15T13:32:58.371Z,48.11
2023-04-15T13:35:26.354Z,47.85
2023-04-15T13:37:55.261Z,48.21
2023-04-15T13:40:23.029Z,48.44
2023-04-15T13:42:50.763Z,48.20
2023-04-15T13:45:18.570Z,47.96
2023-04-15T13:47:46.395Z,47.47
2023-04-15T13:50:15.564Z,47.52
2023-04-15T13:52:43.300Z,47.24
2023-04-15T13:55:19.930Z,47.73
2023-04-15T13:57:50.477Z,47.75
2023-04-15T14:00:18.422Z,47.55
2023-04-15T14:02:46.352Z,47.95
2023-04-15T14:05:15.732Z,47.91
2023-04-15T14:07:43.589Z,47.54
2023-04-15T14:10:12.376Z,46.38
2023-04-15T14:12:40.097Z,45.84
2023-04-15T14:15:08.782Z,45.31
2023-04-15T14:17:36.513Z,45.31
2023-04-15T14:20:04.857Z,45.17
2023-04-15T14:22:33.884Z,45.73
2023-04-15T14:25:01.795Z,46.02
2023-04-15T14:27:30.029Z,46.33
2023-04-15T14:29:58.745Z,46.79
2023-04-15T14:32:26.541Z,47.15
2023-04-15T14:34:54.247Z,47.48
2023-04-15T14:37:28.663Z,46.63
2023-04-15T14:39:57.768Z,47.55
2023-04-15T14:42:25.563Z,47.16
2023-04-15T14:44:53.329Z,46.47
2023-04-15T14:47:21.161Z,46.13
2023-04-15T14:49:48.944Z,46.18
2023-04-15T14:52:16.788Z,47.27
2023-04-15T14:54:44.553Z,47.66
2023-04-15T14:57:13.634Z,48.29
2023-04-15T14:59:41.349Z,47.52
2023-04-15T15:02:09.916Z,47.83
2023-04-15T15:04:38.423Z,47.86
2023-04-15T15:07:06.434Z,48.10
2023-04-15T15:09:35.065Z,48.50
2023-04-15T15:12:02.966Z,48.69
2023-04-15T15:14:32.124Z,48.20
2023-04-15T15:17:00.471Z,48.45
2023-04-15T15:19:28.217Z,48.53
2023-04-15T15:21:55.931Z,48.16
2023-04-15T15:24:23.625Z,48.49
2023-04-15T15:26:51.427Z,48.57
2023-04-15T15:29:19.196Z,48.53
2023-04-15T15:31:48.291Z,47.69
2023-04-15T15:34:17.060Z,47.55
2023-04-15T15:36:44.783Z,47.93
2023-04-15T15:39:12.629Z,48.23
2023-04-15T15:41:40.338Z,48.71
2023-04-15T15:44:08.070Z,48.67
2023-04-15T15:46:35.890Z,48.41
2023-04-15T15:49:05.361Z,48.74
2023-04-15T15:51:33.410Z,47.97
2023-04-15T15:54:01.288Z,48.41
2023-04-15T15:56:29.016Z,48.59
2023-04-15T15:58:56.715Z,48.59
2023-04-15T16:01:24.508Z,48.76
2023-04-15T16:03:52.479Z,49.27
2023-04-15T16:06:21.651Z,48.81
2023-04-15T16:08:49.380Z,49.50
2023-04-15T16:11:17.099Z,49.83
2023-04-15T16:13:44.914Z,49.85
2023-04-15T16:16:12.677Z,49.82
2023-04-15T16:18:40.554Z,50.10
2023-04-15T16:21:08.388Z,49.95
2023-04-15T16:23:37.784Z,49.65
2023-04-15T16:26:05.631Z,49.90
2023-04-15T16:28:33.441Z,49.82
2023-04-15T16:31:01.218Z,49.95
2023-04-15T16:33:29.024Z,50.12
2023-04-15T16:35:56.752Z,50.08
2023-04-15T16:38:24.811Z,49.98
2023-04-15T16:40:53.894Z,49.69
2023-04-15T16:43:21.760Z,49.70
2023-04-15T16:45:51.222Z,49.65
2023-04-15T16:48:20.116Z,49.91
2023-04-15T16:50:48.818Z,49.61
2023-04-15T16:53:16.810Z,50.25
2023-04-15T16:55:44.686Z,50.17
2023-04-15T16:58:13.828Z,50.08
2023-04-15T17:00:41.596Z,50.14
2023-04-15T17:03:09.732Z,50.12
2023-04-15T17:05:37.660Z,50.43
2023-04-15T17:08:05.742Z,49.73
2023-04-15T17:10:33.535Z,49.93
2023-04-15T17:13:01.277Z,49.89
2023-04-15T17:15:30.750Z,50.10
2023-04-15T17:17:58.514Z,50.28
2023-04-15T17:20:26.486Z,50.69
2023-04-15T17:22:54.196Z,50.60
2023-04-15T17:25:22.014Z,50.52
2023-04-15T17:27:49.756Z,50.59
2023-04-15T17:30:17.578Z,50.74
2023-04-15T17:32:46.765Z,50.38
2023-04-15T17:35:14.589Z,50.65
2023-04-15T17:37:42.337Z,50.88
2023-04-15T17:40:11.038Z,50.57
2023-04-15T17:42:38.828Z,50.81
2023-04-15T17:45:07.620Z,51.10
2023-04-15T17:47:35.378Z,50.96
2023-04-15T17:50:04.526Z,51.46
2023-04-15T17:52:32.289Z,51.58
2023-04-15T17:55:00.080Z,51.52
2023-04-15T17:57:27.841Z,51.06
2023-04-15T17:59:55.657Z,51.34
2023-04-15T18:02:23.611Z,51.62
2023-04-15T18:04:51.672Z,51.32
2023-04-15T18:07:20.927Z,51.31
2023-04-15T18:09:50.498Z,51.51
2023-04-15T18:12:18.299Z,51.65
2023-04-15T18:14:46.178Z,51.37
2023-04-15T18:17:14.603Z,51.76
2023-04-15T18:19:43.442Z,51.66
2023-04-15T18:22:11.376Z,51.83
2023-04-15T18:24:40.450Z,51.64
2023-04-15T18:27:08.190Z,51.58
2023-04-15T18:29:36.478Z,51.90
2023-04-15T18:32:04.397Z,52.20
2023-04-15T18:34:32.209Z,52.25
2023-04-15T18:37:00.042Z,52.34
2023-04-15T18:39:28.064Z,51.92
2023-04-15T18:41:57.289Z,52.09
2023-04-15T18:44:25.101Z,52.25
2023-04-15T18:46:52.843Z,52.14
2023-04-15T18:49:20.894Z,52.10
2023-04-15T18:51:48.612Z,51.94
2023-04-15T18:54:18.464Z,52.35
2023-04-15T18:56:46.782Z,52.44
2023-04-15T18:59:28.840Z,52.26
2023-04-15T19:01:58.911Z,52.48
2023-04-15T19:04:28.873Z,52.76
2023-04-15T19:06:57.049Z,52.57
2023-04-15T19:09:24.795Z,52.55
2023-04-15T19:11:52.509Z,52.71
2023-04-15T19:14:21.718Z,52.69
2023-04-15T19:16:49.464Z,52.77
2023-04-15T19:19:17.260Z,52.77
2023-04-15T19:21:45.520Z,53.10
2023-04-15T19:24:13.374Z,53.15
2023-04-15T19:26:41.099Z,53.35
2023-04-15T19:29:08.828Z,53.41
2023-04-15T19:31:37.901Z,53.57
2023-04-15T19:34:05.759Z,53.52
2023-04-15T19:36:33.571Z,53.98
2023-04-15T19:39:02.171Z,53.68
2023-04-15T19:41:29.987Z,53.85
2023-04-15T19:43:57.779Z,53.72
2023-04-15T19:46:25.536Z,53.80
2023-04-15T19:48:55.835Z,53.54
2023-04-15T19:51:23.585Z,53.63
2023-04-15T19:53:53.880Z,53.62
2023-04-15T19:56:23.912Z,53.95
2023-04-15T19:58:52.986Z,53.91
2023-04-15T20:01:21.011Z,54.33
2023-04-15T20:03:49.352Z,54.14
2023-04-15T20:06:18.576Z,54.07
2023-04-15T20:08:46.348Z,54.47
2023-04-15T20:11:15.160Z,54.43
2023-04-15T20:13:43.127Z,54.26
2023-04-15T20:16:11.720Z,54.57
2023-04-15T20:18:39.529Z,54.57
2023-04-15T20:21:07.234Z,54.31
2023-04-15T20:23:38.253Z,54.89
2023-04-15T20:26:06.412Z,54.69
2023-04-15T20:28:34.266Z,54.79
2023-04-15T20:31:02.264Z,55.15
2023-04-15T20:33:30.556Z,55.27
2023-04-15T20:35:58.733Z,55.36
2023-04-15T20:38:26.529Z,55.25
2023-04-15T20:40:55.706Z,55.39
2023-04-15T20:43:23.588Z,55.39
2023-04-15T20:45:53.883Z,55.83
2023-04-15T20:48:22.706Z,55.97
2023-04-15T20:50:50.520Z,55.97
2023-04-15T20:53:18.684Z,55.90
2023-04-15T20:55:46.449Z,55.76
2023-04-15T20:58:15.683Z,55.56
2023-04-15T21:00:45.287Z,55.49
2023-04-15T21:03:13.274Z,55.87
2023-04-15T21:05:41.451Z,55.98
2023-04-15T21:08:09.202Z,55.66
2023-04-15T21:10:37.124Z,56.35
2023-04-15T21:13:06.370Z,56.26
2023-04-15T21:15:35.791Z,56.57
2023-04-15T21:18:03.527Z,56.25
2023-04-15T21:20:31.256Z,56.22
2023-04-15T21:22:58.935Z,56.17
2023-04-15T21:25:26.683Z,56.23
2023-04-15T21:27:54.488Z,56.31
2023-04-15T21:30:23.754Z,56.37
2023-04-15T21:32:52.885Z,56.26
2023-04-15T21:35:20.620Z,56.53
2023-04-15T21:37:48.300Z,56.62
2023-04-15T21:40:17.813Z,57.02
2023-04-15T21:42:45.553Z,57.37
2023-04-15T21:45:13.507Z,57.03
2023-04-15T21:48:04.401Z,57.41
2023-04-15T21:50:30.303Z,57.49
2023-04-15T21:52:58.602Z,57.91
2023-04-15T21:55:26.577Z,57.82
2023-04-15T21:57:54.280Z,58.18
2023-04-15T22:00:23.099Z,58.07
2023-04-15T22:02:50.938Z,58.32
2023-04-15T22:05:18.797Z,58.58
2023-04-15T22:07:47.930Z,58.80
2023-04-15T22:10:15.779Z,59.09
2023-04-15T22:12:43.574Z,59.29
2023-04-15T22:15:11.383Z,59.30
2023-04-15T22:17:39.185Z,59.30
2023-04-15T22:20:08.374Z,59.44
2023-04-15T22:22:44.102Z,59.61
2023-04-15T22:25:13.671Z,60.00
2023-04-15T22:27:42.549Z,60.55
2023-04-15T22:30:11.398Z,60.59
2023-04-15T22:32:39.167Z,60.49
2023-04-15T22:35:07.499Z,60.44
2023-04-15T22:37:35.171Z,60.28
2023-04-15T22:40:03.225Z,60.40
2023-04-15T22:42:32.323Z,60.43
2023-04-15T22:45:00.060Z,60.60
2023-04-15T22:47:27.855Z,60.88
2023-04-15T22:49:55.560Z,60.80
2023-04-15T22:52:30.053Z,60.82
2023-04-15T22:54:59.012Z,60.60
2023-04-15T22:57:27.871Z,60.74
2023-04-15T22:59:57.045Z,60.83
2023-04-15T23:02:24.985Z,60.61
2023-04-15T23:04:52.904Z,60.52
2023-04-15T23:07:20.722Z,60.81
2023-04-15T23:09:48.427Z,60.97
2023-04-15T23:12:16.202Z,61.05
2023-04-15T23:14:43.936Z,61.21
2023-04-15T23:17:12.950Z,61.56
2023-04-15T23:19:40.677Z,61.56
2023-04-15T23:22:10.567Z,61.09
2023-04-15T23:24:38.432Z,61.41
2023-04-15T23:27:06.239Z,61.61
2023-04-15T23:29:34.015Z,61.73
2023-04-15T23:32:01.893Z,62.00
2023-04-15T23:34:31.115Z,61.95
2023-04-15T23:36:58.818Z,61.88
2023-04-15T23:39:26.645Z,62.18
2023-04-15T23:41:54.508Z,62.33
2023-04-15T23:44:22.297Z,62.28
2023-04-15T23:46:50.401Z,62.54
2023-04-15T23:49:20.226Z,62.21
2023-04-15T23:51:49.634Z,62.25
2023-04-15T23:54:17.401Z,62.05
2023-04-15T23:56:46.168Z,62.14
2023-04-15T23:59:13.932Z,62.36
